sensor_id;sensor_type;location;lat;lon;timestamp;P1;durP1;ratioP1;P2;durP2;ratioP2
69970;SDS011;57301;50.328;8.542;2022-10-30T00:01:32;17.58;;;10.60;;
69970;SDS011;57301;50.328;8.542;2022-10-30T00:03:59;21.50;;;10.40;;
69970;SDS011;57301;50.328;8.542;2022-10-30T00:06:25;21.67;;;10.20;;
69970;SDS011;57301;50.328;8.542;2022-10-30T00:08:52;16.25;;;10.32;;
69970;SDS011;57301;50.328;8.542;2022-10-30T00:11:18;23.00;;;10.60;;
69970;SDS011;57301;50.328;8.542;2022-10-30T00:13:45;25.30;;;11.30;;
69970;SDS011;57301;50.328;8.542;2022-10-30T00:16:11;22.38;;;11.70;;
69970;SDS011;57301;50.328;8.542;2022-10-30T00:18:38;22.30;;;10.17;;
69970;SDS011;57301;50.328;8.542;2022-10-30T00:21:08;19.98;;;10.93;;
69970;SDS011;57301;50.328;8.542;2022-10-30T00:23:36;19.23;;;11.05;;
69970;SDS011;57301;50.328;8.542;2022-10-30T00:26:06;24.00;;;11.38;;
69970;SDS011;57301;50.328;8.542;2022-10-30T00:28:33;20.13;;;10.60;;
69970;SDS011;57301;50.328;8.542;2022-10-30T00:31:00;18.27;;;10.50;;
69970;SDS011;57301;50.328;8.542;2022-10-30T00:33:27;20.40;;;10.70;;
69970;SDS011;57301;50.328;8.542;2022-10-30T00:35:53;18.38;;;10.48;;
69970;SDS011;57301;50.328;8.542;2022-10-30T00:38:20;19.02;;;10.40;;
69970;SDS011;57301;50.328;8.542;2022-10-30T00:40:47;20.60;;;11.10;;
69970;SDS011;57301;50.328;8.542;2022-10-30T00:45:57;21.35;;;11.00;;
69970;SDS011;57301;50.328;8.542;2022-10-30T00:48:29;24.83;;;10.85;;
69970;SDS011;57301;50.328;8.542;2022-10-30T00:50:55;19.48;;;10.50;;
69970;SDS011;57301;50.328;8.542;2022-10-30T00:53:25;19.38;;;10.63;;
69970;SDS011;57301;50.328;8.542;2022-10-30T00:55:54;21.70;;;11.13;;
69970;SDS011;57301;50.328;8.542;2022-10-30T00:58:26;21.83;;;11.32;;
69970;SDS011;57301;50.328;8.542;2022-10-30T01:01:06;17.05;;;10.57;;
69970;SDS011;57301;50.328;8.542;2022-10-30T01:03:36;23.55;;;10.82;;
69970;SDS011;57301;50.328;8.542;2022-10-30T01:06:06;23.67;;;10.43;;
69970;SDS011;57301;50.328;8.542;2022-10-30T01:08:36;21.93;;;11.07;;
69970;SDS011;57301;50.328;8.542;2022-10-30T01:11:04;19.95;;;11.60;;
69970;SDS011;57301;50.328;8.542;2022-10-30T01:13:31;20.63;;;10.90;;
69970;SDS011;57301;50.328;8.542;2022-10-30T01:16:23;18.80;;;11.38;;
69970;SDS011;57301;50.328;8.542;2022-10-30T01:21:49;15.87;;;9.90;;
69970;SDS011;57301;50.328;8.542;2022-10-30T01:24:38;18.70;;;11.00;;
69970;SDS011;57301;50.328;8.542;2022-10-30T01:27:23;17.55;;;11.10;;
69970;SDS011;57301;50.328;8.542;2022-10-30T01:30:47;21.08;;;10.98;;
69970;SDS011;57301;50.328;8.542;2022-10-30T01:33:47;21.25;;;10.55;;
69970;SDS011;57301;50.328;8.542;2022-10-30T01:36:36;22.10;;;11.10;;
69970;SDS011;57301;50.328;8.542;2022-10-30T01:39:12;19.15;;;11.10;;
69970;SDS011;57301;50.328;8.542;2022-10-30T01:41:42;17.90;;;11.73;;
69970;SDS011;57301;50.328;8.542;2022-10-30T01:44:15;18.75;;;11.10;;
69970;SDS011;57301;50.328;8.542;2022-10-30T01:55:27;19.70;;;11.90;;
69970;SDS011;57301;50.328;8.542;2022-10-30T01:58:40;19.92;;;10.88;;
69970;SDS011;57301;50.328;8.542;2022-10-30T02:00:48;18.73;;;10.40;;
69970;SDS011;57301;50.328;8.542;2022-10-30T02:03:18;18.90;;;10.60;;
69970;SDS011;57301;50.328;8.542;2022-10-30T02:05:47;18.48;;;10.93;;
69970;SDS011;57301;50.328;8.542;2022-10-30T02:08:15;17.85;;;11.10;;
69970;SDS011;57301;50.328;8.542;2022-10-30T02:10:42;20.75;;;10.90;;
69970;SDS011;57301;50.328;8.542;2022-10-30T02:13:12;23.98;;;13.43;;
69970;SDS011;57301;50.328;8.542;2022-10-30T02:15:39;20.53;;;12.03;;
69970;SDS011;57301;50.328;8.542;2022-10-30T02:18:07;20.38;;;11.65;;
69970;SDS011;57301;50.328;8.542;2022-10-30T02:20:34;25.65;;;12.23;;
69970;SDS011;57301;50.328;8.542;2022-10-30T02:23:02;21.70;;;12.18;;
69970;SDS011;57301;50.328;8.542;2022-10-30T02:25:29;19.33;;;12.25;;
69970;SDS011;57301;50.328;8.542;2022-10-30T02:27:56;20.23;;;12.57;;
69970;SDS011;57301;50.328;8.542;2022-10-30T02:30:22;23.98;;;12.55;;
69970;SDS011;57301;50.328;8.542;2022-10-30T02:32:49;21.20;;;11.43;;
69970;SDS011;57301;50.328;8.542;2022-10-30T02:35:15;21.52;;;12.23;;
69970;SDS011;57301;50.328;8.542;2022-10-30T02:37:41;21.23;;;12.07;;
69970;SDS011;57301;50.328;8.542;2022-10-30T02:40:08;19.80;;;10.90;;
69970;SDS011;57301;50.328;8.542;2022-10-30T02:42:35;19.23;;;10.88;;
69970;SDS011;57301;50.328;8.542;2022-10-30T02:45:01;15.68;;;10.43;;
69970;SDS011;57301;50.328;8.542;2022-10-30T02:47:28;15.52;;;10.48;;
69970;SDS011;57301;50.328;8.542;2022-10-30T02:49:54;21.42;;;10.77;;
69970;SDS011;57301;50.328;8.542;2022-10-30T02:52:21;23.07;;;10.90;;
69970;SDS011;57301;50.328;8.542;2022-10-30T02:54:47;19.08;;;10.50;;
69970;SDS011;57301;50.328;8.542;2022-10-30T02:57:14;19.52;;;11.05;;
69970;SDS011;57301;50.328;8.542;2022-10-30T02:59:40;19.45;;;10.05;;
69970;SDS011;57301;50.328;8.542;2022-10-30T03:02:06;16.67;;;10.30;;
69970;SDS011;57301;50.328;8.542;2022-10-30T03:04:33;17.33;;;10.40;;
69970;SDS011;57301;50.328;8.542;2022-10-30T03:06:59;19.08;;;10.60;;
69970;SDS011;57301;50.328;8.542;2022-10-30T03:09:26;17.20;;;10.60;;
69970;SDS011;57301;50.328;8.542;2022-10-30T03:11:53;17.30;;;10.45;;
69970;SDS011;57301;50.328;8.542;2022-10-30T03:14:19;19.60;;;10.20;;
69970;SDS011;57301;50.328;8.542;2022-10-30T03:16:46;17.57;;;10.33;;
69970;SDS011;57301;50.328;8.542;2022-10-30T03:19:12;18.55;;;10.07;;
69970;SDS011;57301;50.328;8.542;2022-10-30T03:21:39;20.75;;;10.13;;
69970;SDS011;57301;50.328;8.542;2022-10-30T03:24:05;21.60;;;10.70;;
69970;SDS011;57301;50.328;8.542;2022-10-30T03:26:32;17.20;;;10.60;;
69970;SDS011;57301;50.328;8.542;2022-10-30T03:28:58;17.43;;;10.37;;
69970;SDS011;57301;50.328;8.542;2022-10-30T03:31:24;18.95;;;10.52;;
69970;SDS011;57301;50.328;8.542;2022-10-30T03:33:51;18.15;;;10.27;;
69970;SDS011;57301;50.328;8.542;2022-10-30T03:36:17;21.65;;;10.75;;
69970;SDS011;57301;50.328;8.542;2022-10-30T03:38:44;18.80;;;10.55;;
69970;SDS011;57301;50.328;8.542;2022-10-30T03:41:10;17.77;;;9.83;;
69970;SDS011;57301;50.328;8.542;2022-10-30T03:43:36;20.40;;;10.70;;
69970;SDS011;57301;50.328;8.542;2022-10-30T03:46:03;16.15;;;10.10;;
69970;SDS011;57301;50.328;8.542;2022-10-30T03:48:30;21.55;;;9.93;;
69970;SDS011;57301;50.328;8.542;2022-10-30T03:50:57;14.35;;;9.20;;
69970;SDS011;57301;50.328;8.542;2022-10-30T03:53:24;17.17;;;10.20;;
69970;SDS011;57301;50.328;8.542;2022-10-30T03:56:00;17.85;;;11.05;;
69970;SDS011;57301;50.328;8.542;2022-10-30T03:58:28;15.50;;;9.48;;
69970;SDS011;57301;50.328;8.542;2022-10-30T04:00:59;19.35;;;9.30;;
69970;SDS011;57301;50.328;8.542;2022-10-30T04:03:27;20.20;;;10.10;;
69970;SDS011;57301;50.328;8.542;2022-10-30T04:05:53;18.50;;;9.13;;
69970;SDS011;57301;50.328;8.542;2022-10-30T04:08:20;16.55;;;9.20;;
69970;SDS011;57301;50.328;8.542;2022-10-30T04:10:46;15.60;;;9.93;;
69970;SDS011;57301;50.328;8.542;2022-10-30T04:13:14;19.85;;;10.27;;
69970;SDS011;57301;50.328;8.542;2022-10-30T04:15:41;13.48;;;9.02;;
69970;SDS011;57301;50.328;8.542;2022-10-30T04:18:11;15.87;;;9.27;;
69970;SDS011;57301;50.328;8.542;2022-10-30T04:20:38;15.23;;;9.07;;
69970;SDS011;57301;50.328;8.542;2022-10-30T04:23:06;18.45;;;9.20;;
69970;SDS011;57301;50.328;8.542;2022-10-30T04:25:35;15.90;;;8.77;;
69970;SDS011;57301;50.328;8.542;2022-10-30T04:28:02;18.15;;;9.30;;
69970;SDS011;57301;50.328;8.542;2022-10-30T04:30:29;16.77;;;9.40;;
69970;SDS011;57301;50.328;8.542;2022-10-30T04:33:00;15.70;;;9.00;;
69970;SDS011;57301;50.328;8.542;2022-10-30T04:35:30;16.85;;;9.40;;
69970;SDS011;57301;50.328;8.542;2022-10-30T04:37:59;16.38;;;8.98;;
69970;SDS011;57301;50.328;8.542;2022-10-30T04:40:30;16.08;;;9.20;;
69970;SDS011;57301;50.328;8.542;2022-10-30T04:42:58;14.30;;;9.07;;
69970;SDS011;57301;50.328;8.542;2022-10-30T04:45:26;18.85;;;9.75;;
69970;SDS011;57301;50.328;8.542;2022-10-30T04:47:54;20.10;;;8.95;;
69970;SDS011;57301;50.328;8.542;2022-10-30T04:50:26;15.93;;;8.98;;
69970;SDS011;57301;50.328;8.542;2022-10-30T04:52:59;17.02;;;9.55;;
69970;SDS011;57301;50.328;8.542;2022-10-30T04:55:30;15.83;;;9.43;;
69970;SDS011;57301;50.328;8.542;2022-10-30T04:57:57;18.90;;;9.65;;
69970;SDS011;57301;50.328;8.542;2022-10-30T05:00:26;21.10;;;9.30;;
69970;SDS011;57301;50.328;8.542;2022-10-30T05:02:52;19.95;;;8.80;;
69970;SDS011;57301;50.328;8.542;2022-10-30T05:05:19;19.85;;;9.73;;
69970;SDS011;57301;50.328;8.542;2022-10-30T05:07:46;14.07;;;9.30;;
69970;SDS011;57301;50.328;8.542;2022-10-30T05:10:12;19.17;;;9.00;;
69970;SDS011;57301;50.328;8.542;2022-10-30T05:12:40;18.35;;;9.25;;
69970;SDS011;57301;50.328;8.542;2022-10-30T05:15:08;15.73;;;9.07;;
69970;SDS011;57301;50.328;8.542;2022-10-30T05:17:36;14.27;;;8.88;;
69970;SDS011;57301;50.328;8.542;2022-10-30T05:20:03;17.70;;;8.40;;
69970;SDS011;57301;50.328;8.542;2022-10-30T05:22:30;16.00;;;9.00;;
69970;SDS011;57301;50.328;8.542;2022-10-30T05:24:56;23.38;;;9.70;;
69970;SDS011;57301;50.328;8.542;2022-10-30T05:27:22;21.50;;;8.93;;
69970;SDS011;57301;50.328;8.542;2022-10-30T05:29:51;18.05;;;9.75;;
69970;SDS011;57301;50.328;8.542;2022-10-30T05:32:18;17.97;;;8.97;;
69970;SDS011;57301;50.328;8.542;2022-10-30T05:34:44;16.83;;;8.77;;
69970;SDS011;57301;50.328;8.542;2022-10-30T05:37:10;18.30;;;9.98;;
69970;SDS011;57301;50.328;8.542;2022-10-30T05:39:37;17.85;;;9.30;;
69970;SDS011;57301;50.328;8.542;2022-10-30T05:42:03;18.60;;;9.40;;
69970;SDS011;57301;50.328;8.542;2022-10-30T05:44:34;15.70;;;8.67;;
69970;SDS011;57301;50.328;8.542;2022-10-30T05:47:21;21.20;;;9.63;;
69970;SDS011;57301;50.328;8.542;2022-10-30T05:49:47;14.93;;;9.35;;
69970;SDS011;57301;50.328;8.542;2022-10-30T05:52:14;14.07;;;9.15;;
69970;SDS011;57301;50.328;8.542;2022-10-30T05:54:40;13.57;;;8.85;;
69970;SDS011;57301;50.328;8.542;2022-10-30T05:57:06;16.83;;;8.47;;
69970;SDS011;57301;50.328;8.542;2022-10-30T05:59:33;15.60;;;9.30;;
69970;SDS011;57301;50.328;8.542;2022-10-30T06:01:59;16.13;;;9.40;;
69970;SDS011;57301;50.328;8.542;2022-10-30T06:04:26;16.27;;;8.98;;
69970;SDS011;57301;50.328;8.542;2022-10-30T06:06:52;16.98;;;9.23;;
69970;SDS011;57301;50.328;8.542;2022-10-30T06:09:19;15.60;;;9.83;;
69970;SDS011;57301;50.328;8.542;2022-10-30T06:11:45;15.15;;;9.63;;
69970;SDS011;57301;50.328;8.542;2022-10-30T06:14:12;15.10;;;9.05;;
69970;SDS011;57301;50.328;8.542;2022-10-30T06:16:38;19.63;;;9.55;;
69970;SDS011;57301;50.328;8.542;2022-10-30T06:19:04;14.27;;;8.60;;
69970;SDS011;57301;50.328;8.542;2022-10-30T06:21:31;15.70;;;8.40;;
69970;SDS011;57301;50.328;8.542;2022-10-30T06:23:57;15.95;;;9.52;;
69970;SDS011;57301;50.328;8.542;2022-10-30T06:26:24;12.63;;;9.20;;
69970;SDS011;57301;50.328;8.542;2022-10-30T06:28:50;17.35;;;8.25;;
69970;SDS011;57301;50.328;8.542;2022-10-30T06:31:16;12.57;;;8.88;;
69970;SDS011;57301;50.328;8.542;2022-10-30T06:33:43;12.63;;;7.90;;
69970;SDS011;57301;50.328;8.542;2022-10-30T06:36:09;15.48;;;8.75;;
69970;SDS011;57301;50.328;8.542;2022-10-30T06:38:36;14.10;;;8.38;;
69970;SDS011;57301;50.328;8.542;2022-10-30T06:41:02;12.27;;;8.25;;
69970;SDS011;57301;50.328;8.542;2022-10-30T06:43:29;13.73;;;7.88;;
69970;SDS011;57301;50.328;8.542;2022-10-30T06:45:58;11.23;;;6.83;;
69970;SDS011;57301;50.328;8.542;2022-10-30T06:48:25;11.75;;;7.55;;
69970;SDS011;57301;50.328;8.542;2022-10-30T06:50:55;14.05;;;7.28;;
69970;SDS011;57301;50.328;8.542;2022-10-30T06:53:23;15.95;;;10.18;;
69970;SDS011;57301;50.328;8.542;2022-10-30T06:56:00;12.70;;;8.70;;
69970;SDS011;57301;50.328;8.542;2022-10-30T06:58:28;13.07;;;7.10;;
69970;SDS011;57301;50.328;8.542;2022-10-30T07:00:55;12.27;;;6.88;;
69970;SDS011;57301;50.328;8.542;2022-10-30T07:03:25;10.13;;;6.53;;
69970;SDS011;57301;50.328;8.542;2022-10-30T07:05:51;17.25;;;8.90;;
69970;SDS011;57301;50.328;8.542;2022-10-30T07:08:18;19.05;;;10.20;;
69970;SDS011;57301;50.328;8.542;2022-10-30T07:10:44;11.10;;;7.23;;
69970;SDS011;57301;50.328;8.542;2022-10-30T07:13:11;10.35;;;6.75;;
69970;SDS011;57301;50.328;8.542;2022-10-30T07:15:37;8.05;;;6.25;;
69970;SDS011;57301;50.328;8.542;2022-10-30T07:18:03;13.13;;;8.43;;
69970;SDS011;57301;50.328;8.542;2022-10-30T07:20:31;11.55;;;7.95;;
69970;SDS011;57301;50.328;8.542;2022-10-30T07:23:02;9.70;;;6.37;;
69970;SDS011;57301;50.328;8.542;2022-10-30T07:25:29;9.75;;;5.70;;
69970;SDS011;57301;50.328;8.542;2022-10-30T07:27:56;10.00;;;6.38;;
69970;SDS011;57301;50.328;8.542;2022-10-30T07:30:24;12.35;;;6.28;;
69970;SDS011;57301;50.328;8.542;2022-10-30T07:33:00;9.85;;;5.68;;
69970;SDS011;57301;50.328;8.542;2022-10-30T07:35:28;9.00;;;5.20;;
69970;SDS011;57301;50.328;8.542;2022-10-30T07:38:00;9.82;;;5.13;;
69970;SDS011;57301;50.328;8.542;2022-10-30T07:40:35;21.40;;;11.10;;
69970;SDS011;57301;50.328;8.542;2022-10-30T07:43:02;11.30;;;5.97;;
69970;SDS011;57301;50.328;8.542;2022-10-30T07:45:30;13.65;;;6.85;;
69970;SDS011;57301;50.328;8.542;2022-10-30T07:47:57;10.90;;;5.90;;
69970;SDS011;57301;50.328;8.542;2022-10-30T07:50:23;10.57;;;6.05;;
69970;SDS011;57301;50.328;8.542;2022-10-30T07:52:50;11.07;;;6.18;;
69970;SDS011;57301;50.328;8.542;2022-10-30T07:55:16;13.13;;;5.72;;
69970;SDS011;57301;50.328;8.542;2022-10-30T07:57:43;11.23;;;6.03;;
69970;SDS011;57301;50.328;8.542;2022-10-30T08:00:10;13.63;;;6.20;;
69970;SDS011;57301;50.328;8.542;2022-10-30T08:02:39;12.15;;;5.43;;
69970;SDS011;57301;50.328;8.542;2022-10-30T08:05:06;16.38;;;6.18;;
69970;SDS011;57301;50.328;8.542;2022-10-30T08:07:33;15.45;;;7.05;;
69970;SDS011;57301;50.328;8.542;2022-10-30T08:10:01;9.50;;;5.63;;
69970;SDS011;57301;50.328;8.542;2022-10-30T08:12:31;21.03;;;10.47;;
69970;SDS011;57301;50.328;8.542;2022-10-30T08:14:58;12.20;;;6.40;;
69970;SDS011;57301;50.328;8.542;2022-10-30T08:17:24;15.40;;;6.43;;
69970;SDS011;57301;50.328;8.542;2022-10-30T08:19:51;14.95;;;6.05;;
69970;SDS011;57301;50.328;8.542;2022-10-30T08:22:17;15.48;;;6.60;;
69970;SDS011;57301;50.328;8.542;2022-10-30T08:24:44;19.00;;;6.40;;
69970;SDS011;57301;50.328;8.542;2022-10-30T08:27:10;11.60;;;6.20;;
69970;SDS011;57301;50.328;8.542;2022-10-30T08:29:37;15.13;;;5.85;;
69970;SDS011;57301;50.328;8.542;2022-10-30T08:32:04;13.43;;;5.95;;
69970;SDS011;57301;50.328;8.542;2022-10-30T08:34:30;11.65;;;5.55;;
69970;SDS011;57301;50.328;8.542;2022-10-30T08:37:00;14.23;;;6.13;;
69970;SDS011;57301;50.328;8.542;2022-10-30T08:39:26;13.18;;;7.82;;
69970;SDS011;57301;50.328;8.542;2022-10-30T08:41:55;16.35;;;7.07;;
69970;SDS011;57301;50.328;8.542;2022-10-30T08:44:23;12.85;;;6.35;;
69970;SDS011;57301;50.328;8.542;2022-10-30T08:46:49;10.63;;;5.90;;
69970;SDS011;57301;50.328;8.542;2022-10-30T08:49:16;11.30;;;5.87;;
69970;SDS011;57301;50.328;8.542;2022-10-30T08:51:42;14.55;;;5.90;;
69970;SDS011;57301;50.328;8.542;2022-10-30T08:54:09;9.85;;;5.85;;
69970;SDS011;57301;50.328;8.542;2022-10-30T08:56:35;14.27;;;5.90;;
69970;SDS011;57301;50.328;8.542;2022-10-30T08:59:02;12.00;;;5.88;;
69970;SDS011;57301;50.328;8.542;2022-10-30T09:01:28;15.57;;;6.00;;
69970;SDS011;57301;50.328;8.542;2022-10-30T09:03:55;10.80;;;6.18;;
69970;SDS011;57301;50.328;8.542;2022-10-30T09:06:21;12.07;;;5.97;;
69970;SDS011;57301;50.328;8.542;2022-10-30T09:08:48;10.48;;;6.07;;
69970;SDS011;57301;50.328;8.542;2022-10-30T09:11:14;11.95;;;6.05;;
69970;SDS011;57301;50.328;8.542;2022-10-30T09:13:42;10.00;;;5.60;;
69970;SDS011;57301;50.328;8.542;2022-10-30T09:16:09;13.13;;;6.32;;
69970;SDS011;57301;50.328;8.542;2022-10-30T09:18:35;12.45;;;6.18;;
69970;SDS011;57301;50.328;8.542;2022-10-30T09:21:02;10.55;;;5.85;;
69970;SDS011;57301;50.328;8.542;2022-10-30T09:23:30;15.30;;;6.40;;
69970;SDS011;57301;50.328;8.542;2022-10-30T09:25:57;11.27;;;5.70;;
69970;SDS011;57301;50.328;8.542;2022-10-30T09:28:23;12.98;;;5.80;;
69970;SDS011;57301;50.328;8.542;2022-10-30T09:30:50;13.23;;;6.35;;
69970;SDS011;57301;50.328;8.542;2022-10-30T09:33:21;12.77;;;6.40;;
69970;SDS011;57301;50.328;8.542;2022-10-30T09:35:48;12.27;;;5.57;;
69970;SDS011;57301;50.328;8.542;2022-10-30T09:38:14;14.27;;;6.13;;
69970;SDS011;57301;50.328;8.542;2022-10-30T09:52:37;14.60;;;5.90;;
69970;SDS011;57301;50.328;8.542;2022-10-30T10:00:59;13.25;;;6.03;;
69970;SDS011;57301;50.328;8.542;2022-10-30T10:06:26;13.70;;;9.23;;
69970;SDS011;57301;50.328;8.542;2022-10-30T10:11:29;14.10;;;6.15;;
69970;SDS011;57301;50.328;8.542;2022-10-30T10:14:15;16.50;;;6.38;;
69970;SDS011;57301;50.328;8.542;2022-10-30T10:16:47;14.10;;;6.13;;
69970;SDS011;57301;50.328;8.542;2022-10-30T10:22:02;10.68;;;5.32;;
69970;SDS011;57301;50.328;8.542;2022-10-30T10:24:41;11.40;;;5.75;;
69970;SDS011;57301;50.328;8.542;2022-10-30T10:30:04;11.65;;;5.88;;
69970;SDS011;57301;50.328;8.542;2022-10-30T10:38:16;15.52;;;5.57;;
69970;SDS011;57301;50.328;8.542;2022-10-30T10:43:40;10.93;;;5.38;;
69970;SDS011;57301;50.328;8.542;2022-10-30T10:49:17;11.80;;;4.93;;
69970;SDS011;57301;50.328;8.542;2022-10-30T10:52:14;11.60;;;4.97;;
69970;SDS011;57301;50.328;8.542;2022-10-30T10:54:45;12.55;;;4.78;;
69970;SDS011;57301;50.328;8.542;2022-10-30T10:57:25;12.57;;;4.95;;
69970;SDS011;57301;50.328;8.542;2022-10-30T10:59:56;11.87;;;5.00;;
69970;SDS011;57301;50.328;8.542;2022-10-30T11:05:15;11.50;;;4.93;;
69970;SDS011;57301;50.328;8.542;2022-10-30T11:07:49;11.15;;;4.53;;
69970;SDS011;57301;50.328;8.542;2022-10-30T11:10:17;9.25;;;4.07;;
69970;SDS011;57301;50.328;8.542;2022-10-30T11:12:45;11.03;;;4.43;;
69970;SDS011;57301;50.328;8.542;2022-10-30T11:15:17;12.02;;;4.50;;
69970;SDS011;57301;50.328;8.542;2022-10-30T11:20:39;10.88;;;4.28;;
69970;SDS011;57301;50.328;8.542;2022-10-30T11:23:28;11.80;;;4.43;;
69970;SDS011;57301;50.328;8.542;2022-10-30T11:26:03;11.03;;;4.60;;
69970;SDS011;57301;50.328;8.542;2022-10-30T11:28:33;8.45;;;4.22;;
69970;SDS011;57301;50.328;8.542;2022-10-30T11:31:20;9.50;;;4.53;;
69970;SDS011;57301;50.328;8.542;2022-10-30T11:33:49;10.18;;;4.70;;
69970;SDS011;57301;50.328;8.542;2022-10-30T11:36:17;9.70;;;4.60;;
69970;SDS011;57301;50.328;8.542;2022-10-30T11:38:47;12.17;;;4.50;;
69970;SDS011;57301;50.328;8.542;2022-10-30T11:41:14;10.85;;;4.18;;
69970;SDS011;57301;50.328;8.542;2022-10-30T11:43:41;9.40;;;4.22;;
69970;SDS011;57301;50.328;8.542;2022-10-30T11:46:10;10.63;;;3.92;;
69970;SDS011;57301;50.328;8.542;2022-10-30T11:48:45;12.60;;;4.22;;
69970;SDS011;57301;50.328;8.542;2022-10-30T11:51:14;8.70;;;3.97;;
69970;SDS011;57301;50.328;8.542;2022-10-30T11:53:58;9.27;;;4.00;;
69970;SDS011;57301;50.328;8.542;2022-10-30T11:56:25;10.80;;;4.10;;
69970;SDS011;57301;50.328;8.542;2022-10-30T11:58:53;8.63;;;3.67;;
69970;SDS011;57301;50.328;8.542;2022-10-30T12:01:23;8.63;;;4.10;;
69970;SDS011;57301;50.328;8.542;2022-10-30T12:03:54;8.33;;;4.00;;
69970;SDS011;57301;50.328;8.542;2022-10-30T12:08:57;8.43;;;3.70;;
69970;SDS011;57301;50.328;8.542;2022-10-30T12:11:44;8.90;;;3.55;;
69970;SDS011;57301;50.328;8.542;2022-10-30T12:14:16;10.90;;;4.15;;
69970;SDS011;57301;50.328;8.542;2022-10-30T12:16:53;9.40;;;3.70;;
69970;SDS011;57301;50.328;8.542;2022-10-30T12:19:22;8.50;;;3.72;;
69970;SDS011;57301;50.328;8.542;2022-10-30T12:21:50;7.97;;;3.65;;
69970;SDS011;57301;50.328;8.542;2022-10-30T12:24:30;8.70;;;3.75;;
69970;SDS011;57301;50.328;8.542;2022-10-30T12:27:01;8.75;;;3.70;;
69970;SDS011;57301;50.328;8.542;2022-10-30T12:29:54;9.80;;;4.13;;
69970;SDS011;57301;50.328;8.542;2022-10-30T12:32:52;11.65;;;4.93;;
69970;SDS011;57301;50.328;8.542;2022-10-30T12:38:31;9.35;;;4.32;;
69970;SDS011;57301;50.328;8.542;2022-10-30T12:43:33;9.27;;;3.83;;
69970;SDS011;57301;50.328;8.542;2022-10-30T12:46:37;7.18;;;3.72;;
69970;SDS011;57301;50.328;8.542;2022-10-30T12:51:48;10.77;;;4.00;;
69970;SDS011;57301;50.328;8.542;2022-10-30T12:54:32;10.70;;;3.85;;
69970;SDS011;57301;50.328;8.542;2022-10-30T12:57:15;7.77;;;3.40;;
69970;SDS011;57301;50.328;8.542;2022-10-30T13:07:56;9.20;;;3.78;;
69970;SDS011;57301;50.328;8.542;2022-10-30T13:10:49;9.17;;;3.70;;
69970;SDS011;57301;50.328;8.542;2022-10-30T13:13:20;9.38;;;3.40;;
69970;SDS011;57301;50.328;8.542;2022-10-30T13:15:51;10.27;;;3.70;;
69970;SDS011;57301;50.328;8.542;2022-10-30T13:18:21;8.98;;;3.47;;
69970;SDS011;57301;50.328;8.542;2022-10-30T13:23:44;7.27;;;3.10;;
69970;SDS011;57301;50.328;8.542;2022-10-30T13:32:23;6.03;;;3.20;;
69970;SDS011;57301;50.328;8.542;2022-10-30T13:34:58;8.68;;;3.35;;
69970;SDS011;57301;50.328;8.542;2022-10-30T13:45:40;8.68;;;3.70;;
69970;SDS011;57301;50.328;8.542;2022-10-30T13:48:10;9.88;;;4.03;;
69970;SDS011;57301;50.328;8.542;2022-10-30T13:50:53;8.60;;;3.90;;
69970;SDS011;57301;50.328;8.542;2022-10-30T13:53:44;7.45;;;3.70;;
69970;SDS011;57301;50.328;8.542;2022-10-30T13:56:15;11.82;;;4.20;;
69970;SDS011;57301;50.328;8.542;2022-10-30T13:58:45;12.02;;;4.10;;
69970;SDS011;57301;50.328;8.542;2022-10-30T14:01:28;7.28;;;3.72;;
69970;SDS011;57301;50.328;8.542;2022-10-30T14:04:06;11.03;;;3.87;;
69970;SDS011;57301;50.328;8.542;2022-10-30T14:06:52;7.57;;;3.67;;
69970;SDS011;57301;50.328;8.542;2022-10-30T14:09:52;13.27;;;4.50;;
69970;SDS011;57301;50.328;8.542;2022-10-30T14:15:26;11.07;;;3.95;;
69970;SDS011;57301;50.328;8.542;2022-10-30T14:23:12;11.40;;;4.03;;
69970;SDS011;57301;50.328;8.542;2022-10-30T14:25:39;7.60;;;3.78;;
69970;SDS011;57301;50.328;8.542;2022-10-30T14:28:20;7.10;;;3.90;;
69970;SDS011;57301;50.328;8.542;2022-10-30T14:30:47;10.40;;;3.90;;
69970;SDS011;57301;50.328;8.542;2022-10-30T14:36:23;7.25;;;3.63;;
69970;SDS011;57301;50.328;8.542;2022-10-30T14:44:23;8.07;;;3.97;;
69970;SDS011;57301;50.328;8.542;2022-10-30T14:49:56;9.93;;;4.25;;
69970;SDS011;57301;50.328;8.542;2022-10-30T15:00:40;8.38;;;3.95;;
69970;SDS011;57301;50.328;8.542;2022-10-30T15:08:59;9.93;;;4.55;;
69970;SDS011;57301;50.328;8.542;2022-10-30T15:14:07;9.52;;;3.22;;
69970;SDS011;57301;50.328;8.542;2022-10-30T15:16:46;9.40;;;4.20;;
69970;SDS011;57301;50.328;8.542;2022-10-30T15:19:15;12.80;;;4.50;;
69970;SDS011;57301;50.328;8.542;2022-10-30T15:21:45;10.40;;;4.80;;
69970;SDS011;57301;50.328;8.542;2022-10-30T15:24:15;10.27;;;4.60;;
69970;SDS011;57301;50.328;8.542;2022-10-30T15:26:45;7.60;;;4.00;;
69970;SDS011;57301;50.328;8.542;2022-10-30T15:29:17;9.13;;;4.25;;
69970;SDS011;57301;50.328;8.542;2022-10-30T15:32:01;11.98;;;5.88;;
69970;SDS011;57301;50.328;8.542;2022-10-30T15:34:30;10.75;;;5.50;;
69970;SDS011;57301;50.328;8.542;2022-10-30T15:36:58;10.83;;;5.60;;
69970;SDS011;57301;50.328;8.542;2022-10-30T15:39:24;22.80;;;15.85;;
69970;SDS011;57301;50.328;8.542;2022-10-30T15:41:55;17.88;;;8.63;;
69970;SDS011;57301;50.328;8.542;2022-10-30T15:44:34;14.25;;;6.10;;
69970;SDS011;57301;50.328;8.542;2022-10-30T15:47:03;14.95;;;5.65;;
69970;SDS011;57301;50.328;8.542;2022-10-30T15:49:35;15.03;;;5.30;;
69970;SDS011;57301;50.328;8.542;2022-10-30T15:52:12;10.35;;;5.32;;
69970;SDS011;57301;50.328;8.542;2022-10-30T15:54:42;10.90;;;4.40;;
69970;SDS011;57301;50.328;8.542;2022-10-30T15:57:13;8.23;;;4.35;;
69970;SDS011;57301;50.328;8.542;2022-10-30T16:00:05;14.45;;;4.50;;
69970;SDS011;57301;50.328;8.542;2022-10-30T16:03:02;12.57;;;5.27;;
69970;SDS011;57301;50.328;8.542;2022-10-30T16:05:40;10.10;;;5.72;;
69970;SDS011;57301;50.328;8.542;2022-10-30T16:08:11;11.45;;;5.90;;
69970;SDS011;57301;50.328;8.542;2022-10-30T16:10:41;16.33;;;6.35;;
69970;SDS011;57301;50.328;8.542;2022-10-30T16:13:10;12.40;;;5.28;;
69970;SDS011;57301;50.328;8.542;2022-10-30T16:15:41;12.60;;;7.17;;
69970;SDS011;57301;50.328;8.542;2022-10-30T16:18:13;10.32;;;4.72;;
69970;SDS011;57301;50.328;8.542;2022-10-30T16:20:56;10.50;;;4.97;;
69970;SDS011;57301;50.328;8.542;2022-10-30T16:23:35;12.05;;;6.22;;
69970;SDS011;57301;50.328;8.542;2022-10-30T16:26:03;10.30;;;4.82;;
69970;SDS011;57301;50.328;8.542;2022-10-30T16:28:33;11.07;;;5.30;;
69970;SDS011;57301;50.328;8.542;2022-10-30T16:31:04;12.18;;;5.03;;
69970;SDS011;57301;50.328;8.542;2022-10-30T16:33:34;9.90;;;4.40;;
69970;SDS011;57301;50.328;8.542;2022-10-30T16:36:01;9.38;;;5.55;;
69970;SDS011;57301;50.328;8.542;2022-10-30T16:38:32;9.90;;;5.70;;
69970;SDS011;57301;50.328;8.542;2022-10-30T16:41:05;12.93;;;6.50;;
69970;SDS011;57301;50.328;8.542;2022-10-30T16:43:33;17.60;;;7.70;;
69970;SDS011;57301;50.328;8.542;2022-10-30T16:48:40;13.90;;;7.60;;
69970;SDS011;57301;50.328;8.542;2022-10-30T16:51:14;15.02;;;9.88;;
69970;SDS011;57301;50.328;8.542;2022-10-30T16:53:45;16.57;;;9.70;;
69970;SDS011;57301;50.328;8.542;2022-10-30T16:56:16;16.95;;;8.68;;
69970;SDS011;57301;50.328;8.542;2022-10-30T16:58:47;15.38;;;6.90;;
69970;SDS011;57301;50.328;8.542;2022-10-30T17:01:14;15.18;;;7.05;;
69970;SDS011;57301;50.328;8.542;2022-10-30T17:03:41;16.45;;;6.80;;
69970;SDS011;57301;50.328;8.542;2022-10-30T17:06:27;21.93;;;14.57;;
69970;SDS011;57301;50.328;8.542;2022-10-30T17:09:00;14.18;;;7.93;;